Airfield :
LOGIN :

Register | Disclaimer

   EN    FR    IT 

 










Legend :    VFR   Marginal VFR   IFR   Intensive IFR   Very Intensive IFR
Visi :
Ceiling :
>= 8 km
>= 3000ft
5 to 8 km
1000 to 3000 ft
1500m to 5 km
500 to 1000 ft
800 to 1500m
200 to 500 ft
< 800m
< 200 ft
Symbols :   Thunderstorms  Fog  Heavy snow  Heavy precipitations  Wind > 20 kt
SIGMETs :     Misc.  Thunderstorms  Icing  Turbulence  Mountain Waves  Volcanic Ashes






- Airport Elevation : 1906 ft
- IATA code : INN


LOWI - Innsbruck

CURRENT METAR :
  • 310520Z 26005KT 9999 FEW040 SCT080 07/05 Q1019 NOSIG

EXPIRED METARs :
  • 310450Z AUTO 25003KT 9999 FEW060 07/04 Q1019
  • 310420Z AUTO VRB01KT 9999 BKN070 07/04 Q1019
  • 310350Z AUTO VRB01KT 9999 FEW070 BKN080 07/04 Q1019
  • 310320Z AUTO 26004KT 220V280 9999 OVC080 07/04 Q1019
  • 310250Z AUTO VRB01KT 9999 FEW060 OVC080 07/04 Q1019

TAF TAF LOWI
Valid from the 31 at 06:00 until the 01 at 06:00 UTC


310515Z 3106/0106 27004KT 9999 FEW060 BKN080 TX18/3113Z TN08/0104Z
BECMG 3109/3111 09010KT
BECMG 3116/3118 VRB03KT



MET'MAP, your aeronautical weather chart ! - Copyright ORBIFLY December 2007 - Disclaimer

ORBIFLY MET'MAP TEAM :

Programming & Development : Alexandra Zaïnal
Concept & original design : Baudouin d'Aumeries
Assistance for programming : Marc-Olivier Méhu
Technical & hardware support : Manuel Goepfert

Contact : metmap@orbifly.com




SOURCES & CREDITS :

   NOAA